createdAt,value
2019-03-11T00:00:25.045Z,11.90
2019-03-11T00:02:53.506Z,3.40
2019-03-11T00:05:22.068Z,17.23
2019-03-11T00:07:50.549Z,7.47
2019-03-11T00:10:18.994Z,6.90
2019-03-11T00:12:47.449Z,3.27
2019-03-11T00:15:15.936Z,7.63
2019-03-11T00:17:44.408Z,11.27
2019-03-11T00:20:12.926Z,17.27
2019-03-11T00:22:41.413Z,11.47
2019-03-11T00:25:10.112Z,10.53
2019-03-11T00:27:38.571Z,6.53
2019-03-11T00:30:12.716Z,4.47
2019-03-11T00:32:41.167Z,3.33
2019-03-11T00:35:09.894Z,5.37
2019-03-11T00:37:38.414Z,15.00
2019-03-11T00:40:12.770Z,5.30
2019-03-11T00:42:41.233Z,8.63
2019-03-11T00:45:12.171Z,7.47
2019-03-11T00:47:40.638Z,4.70
2019-03-11T00:50:11.143Z,5.50
2019-03-11T00:52:39.734Z,12.47
2019-03-11T00:55:11.463Z,8.90
2019-03-11T00:57:39.913Z,6.53
2019-03-11T01:00:27.850Z,12.83
2019-03-11T01:02:56.311Z,11.57
2019-03-11T01:05:24.775Z,2.33
2019-03-11T01:07:54.260Z,9.67
2019-03-11T01:10:22.711Z,9.63
2019-03-11T01:12:51.168Z,6.67
2019-03-11T01:15:19.674Z,8.33
2019-03-11T01:17:48.143Z,7.03
2019-03-11T01:20:16.672Z,14.37
2019-03-11T01:22:45.174Z,8.00
2019-03-11T01:25:14.561Z,13.43
2019-03-11T01:27:43.033Z,3.73
2019-03-11T01:30:15.664Z,10.53
2019-03-11T01:32:44.279Z,3.90
2019-03-11T01:35:12.807Z,11.07
2019-03-11T01:37:41.271Z,5.40
2019-03-11T01:40:12.444Z,12.93
2019-03-11T01:42:40.896Z,22.40
2019-03-11T01:45:12.007Z,25.27
2019-03-11T01:47:40.539Z,12.73
2019-03-11T01:50:10.634Z,10.57
2019-03-11T01:52:39.125Z,13.03
2019-03-11T01:55:10.383Z,12.20
2019-03-11T01:57:38.844Z,19.53
2019-03-11T02:00:16.630Z,18.93
2019-03-11T02:02:45.069Z,5.40
2019-03-11T02:05:13.655Z,9.00
2019-03-11T02:07:42.173Z,6.60
2019-03-11T02:10:13.304Z,13.20
2019-03-11T02:12:41.749Z,6.93
2019-03-11T02:15:15.244Z,18.40
2019-03-11T02:17:43.694Z,12.90
2019-03-11T02:20:14.197Z,16.40
2019-03-11T02:22:42.715Z,16.13
2019-03-11T02:25:11.268Z,27.63
2019-03-11T02:27:39.735Z,16.40
2019-03-11T02:30:16.329Z,19.90
2019-03-11T02:32:44.784Z,18.83
2019-03-11T02:35:13.339Z,21.10
2019-03-11T02:37:41.882Z,22.07
2019-03-11T02:40:12.710Z,20.73
2019-03-11T02:42:41.188Z,30.87
2019-03-11T02:45:10.409Z,18.00
2019-03-11T02:47:38.933Z,27.73
2019-03-11T02:50:09.639Z,15.70
2019-03-11T02:52:38.143Z,23.20
2019-03-11T02:55:07.582Z,22.87
2019-03-11T02:57:36.006Z,21.43
2019-03-11T03:00:12.072Z,23.17
2019-03-11T03:02:45.208Z,24.43
2019-03-11T03:05:15.441Z,24.90
2019-03-11T03:07:44.000Z,25.53
2019-03-11T03:10:12.517Z,17.97
2019-03-11T03:12:41.245Z,7.50
2019-03-11T03:15:10.890Z,6.00
2019-03-11T03:17:39.360Z,4.47
2019-03-11T03:20:15.333Z,4.30
2019-03-11T03:22:43.798Z,4.13
2019-03-11T03:25:13.385Z,10.67
2019-03-11T03:27:42.007Z,7.83
2019-03-11T03:30:18.646Z,6.67
2019-03-11T03:32:47.309Z,6.50
2019-03-11T03:35:15.797Z,8.70
2019-03-11T03:37:44.399Z,6.00
2019-03-11T03:40:16.385Z,5.33
2019-03-11T03:42:44.932Z,17.03
2019-03-11T03:45:24.544Z,8.30
2019-03-11T03:47:53.056Z,9.87
2019-03-11T03:50:23.234Z,11.50
2019-03-11T03:52:51.724Z,11.00
2019-03-11T03:55:20.188Z,9.37
2019-03-11T03:57:48.643Z,10.10
2019-03-11T04:00:17.198Z,7.37
2019-03-11T04:02:45.663Z,13.93
2019-03-11T04:05:14.504Z,10.27
2019-03-11T04:07:42.993Z,17.20
2019-03-11T04:10:16.816Z,7.53
2019-03-11T04:12:45.417Z,6.80
2019-03-11T04:15:15.487Z,8.43
2019-03-11T04:17:44.081Z,11.17
2019-03-11T04:20:17.841Z,6.53
2019-03-11T04:22:46.327Z,10.10
2019-03-11T04:25:14.923Z,9.13
2019-03-11T04:27:43.372Z,9.13
2019-03-11T04:30:17.419Z,8.50
2019-03-11T04:32:45.935Z,9.97
2019-03-11T04:35:14.403Z,11.80
2019-03-11T04:37:42.908Z,8.93
2019-03-11T04:40:15.480Z,8.33
2019-03-11T04:42:43.985Z,6.00
2019-03-11T04:45:16.103Z,5.97
2019-03-11T04:47:44.634Z,9.50
2019-03-11T04:50:15.993Z,5.33
2019-03-11T04:52:45.239Z,5.33
2019-03-11T04:55:14.825Z,5.30
2019-03-11T04:57:45.119Z,7.80
2019-03-11T05:00:16.423Z,11.00
2019-03-11T05:02:44.879Z,10.10
2019-03-11T05:05:13.562Z,3.17
2019-03-11T05:07:42.056Z,3.70
2019-03-11T05:10:16.378Z,2.93
2019-03-11T05:12:44.423Z,3.70
2019-03-11T05:15:13.848Z,2.87
2019-03-11T05:17:42.561Z,2.57
2019-03-11T05:20:14.825Z,3.57
2019-03-11T05:22:43.319Z,3.33
2019-03-11T05:25:13.033Z,3.43
2019-03-11T05:27:41.556Z,2.27
2019-03-11T05:30:17.439Z,3.83
2019-03-11T05:32:45.958Z,3.37
2019-03-11T05:35:14.470Z,2.67
2019-03-11T05:37:42.984Z,3.60
2019-03-11T05:40:19.260Z,3.00
2019-03-11T05:42:47.764Z,3.20
2019-03-11T05:45:19.979Z,2.50
2019-03-11T05:47:48.568Z,2.30
2019-03-11T05:50:18.015Z,2.50
2019-03-11T05:52:46.475Z,7.97
2019-03-11T05:55:15.188Z,2.80
2019-03-11T05:57:43.685Z,3.90
2019-03-11T06:00:21.468Z,3.50
2019-03-11T06:02:49.953Z,3.70
2019-03-11T06:05:18.411Z,3.43
2019-03-11T06:07:46.867Z,3.63
2019-03-11T06:10:15.870Z,3.10
2019-03-11T06:12:44.292Z,6.20
2019-03-11T06:15:14.724Z,3.67
2019-03-11T06:17:43.299Z,2.90
2019-03-11T06:20:15.462Z,3.40
2019-03-11T06:22:43.919Z,3.83
2019-03-11T06:25:12.422Z,3.37
2019-03-11T06:27:40.881Z,3.63
2019-03-11T06:30:10.638Z,3.53
2019-03-11T06:32:39.134Z,3.77
2019-03-11T06:35:07.664Z,4.83
2019-03-11T06:37:36.125Z,2.87
2019-03-11T06:40:08.101Z,2.73
2019-03-11T06:42:36.554Z,2.90
2019-03-11T06:45:07.053Z,2.53
2019-03-11T06:47:35.544Z,2.50
2019-03-11T06:50:05.848Z,1.87
2019-03-11T06:52:34.316Z,2.73
2019-03-11T06:55:02.871Z,2.17
2019-03-11T06:57:31.329Z,2.30
2019-03-11T06:59:59.790Z,1.97
2019-03-11T07:02:28.294Z,2.43
2019-03-11T07:04:56.748Z,1.53
2019-03-11T07:07:25.208Z,2.27
2019-03-11T07:09:53.734Z,2.00
2019-03-11T07:12:22.183Z,1.73
2019-03-11T07:14:50.635Z,2.40
2019-03-11T07:17:19.142Z,2.93
2019-03-11T07:19:47.596Z,4.67
2019-03-11T07:22:17.096Z,3.03
2019-03-11T07:24:45.611Z,3.50
2019-03-11T07:27:14.083Z,4.67
2019-03-11T07:29:42.539Z,4.90
2019-03-11T07:32:11.030Z,3.00
2019-03-11T07:34:39.492Z,2.40
2019-03-11T07:37:08.050Z,3.40
2019-03-11T07:39:36.528Z,3.20
2019-03-11T07:42:05.054Z,3.00
2019-03-11T07:44:33.515Z,3.20
2019-03-11T07:47:02.018Z,3.67
2019-03-11T07:49:30.478Z,4.60
2019-03-11T07:51:58.939Z,3.03
2019-03-11T07:54:35.466Z,4.20
2019-03-11T07:56:57.626Z,6.03
2019-03-11T07:59:26.088Z,4.40
2019-03-11T08:01:54.594Z,6.90
2019-03-11T08:04:23.050Z,8.60
2019-03-11T08:06:51.586Z,8.53
2019-03-11T08:09:20.093Z,13.27
2019-03-11T08:11:48.544Z,5.97
2019-03-11T08:14:16.995Z,7.43
2019-03-11T08:16:45.466Z,9.60
2019-03-11T08:19:13.942Z,6.60
2019-03-11T08:21:42.453Z,5.67
2019-03-11T08:24:11.288Z,5.57
2019-03-11T08:26:39.720Z,11.83
2019-03-11T08:29:08.192Z,10.97
2019-03-11T08:31:36.682Z,5.90
2019-03-11T08:34:05.123Z,8.30
2019-03-11T08:36:33.583Z,5.40
2019-03-11T08:39:02.063Z,7.77
2019-03-11T08:41:30.517Z,7.23
2019-03-11T08:43:58.981Z,6.77
2019-03-11T08:46:27.466Z,11.73
2019-03-11T08:48:55.925Z,8.20
2019-03-11T08:51:24.388Z,4.97
2019-03-11T08:53:52.870Z,5.83
2019-03-11T08:56:21.329Z,7.93
2019-03-11T08:58:49.801Z,7.97
2019-03-11T09:01:18.655Z,9.03
2019-03-11T09:03:48.023Z,4.93
2019-03-11T09:06:16.668Z,8.57
2019-03-11T09:08:45.172Z,13.77
2019-03-11T09:11:13.707Z,7.80
2019-03-11T09:13:42.170Z,6.63
2019-03-11T09:16:10.683Z,4.13
2019-03-11T09:18:39.164Z,8.60
2019-03-11T09:21:07.623Z,4.73
2019-03-11T09:23:37.833Z,3.47
2019-03-11T09:26:07.393Z,6.27
2019-03-11T09:28:35.912Z,3.40
2019-03-11T09:31:04.566Z,3.53
2019-03-11T09:33:33.012Z,7.20
2019-03-11T09:36:01.475Z,9.07
2019-03-11T09:38:29.981Z,5.63
2019-03-11T09:40:58.440Z,4.70
2019-03-11T09:43:27.285Z,8.53
2019-03-11T09:45:55.885Z,4.20
2019-03-11T09:48:24.337Z,5.17
2019-03-11T09:50:52.793Z,4.23
2019-03-11T09:53:21.290Z,5.13
2019-03-11T09:55:49.732Z,4.83
2019-03-11T09:58:18.208Z,4.10
2019-03-11T10:00:46.681Z,4.00
2019-03-11T10:03:15.140Z,3.83
2019-03-11T10:05:43.598Z,4.70
2019-03-11T10:08:12.098Z,2.97
2019-03-11T10:10:40.540Z,3.17
2019-03-11T10:13:09.007Z,5.63
2019-03-11T10:15:37.501Z,3.03
2019-03-11T10:18:05.950Z,3.30
2019-03-11T10:20:34.418Z,4.33
2019-03-11T10:23:02.919Z,3.77
2019-03-11T10:25:31.377Z,2.80
2019-03-11T10:28:01.661Z,3.70
2019-03-11T10:30:30.170Z,2.70
2019-03-11T10:32:58.622Z,6.23
2019-03-11T10:35:31.714Z,2.60
2019-03-11T10:37:57.322Z,3.30
2019-03-11T10:40:31.224Z,5.80
2019-03-11T10:42:59.735Z,2.77
2019-03-11T10:45:31.516Z,2.60
2019-03-11T10:47:58.401Z,2.27
2019-03-11T10:50:26.890Z,2.90
2019-03-11T10:52:55.352Z,2.53
2019-03-11T10:55:27.560Z,2.97
2019-03-11T10:57:56.061Z,3.77
2019-03-11T11:00:30.672Z,5.23
2019-03-11T11:03:00.133Z,5.80
2019-03-11T11:05:28.697Z,2.77
2019-03-11T11:07:57.156Z,2.67
2019-03-11T11:10:25.620Z,2.70
2019-03-11T11:12:54.249Z,2.30
2019-03-11T11:15:24.421Z,3.63
2019-03-11T11:17:53.790Z,1.27
2019-03-11T11:20:23.322Z,1.37
2019-03-11T11:22:52.806Z,1.47
2019-03-11T11:25:23.560Z,1.10
2019-03-11T11:27:52.238Z,1.40
2019-03-11T11:30:25.822Z,1.87
2019-03-11T11:32:54.369Z,1.40
2019-03-11T11:35:22.989Z,1.57
2019-03-11T11:37:51.523Z,1.97
2019-03-11T11:40:24.493Z,5.50
2019-03-11T11:42:52.981Z,2.07
2019-03-11T11:45:23.649Z,2.20
2019-03-11T11:47:52.172Z,1.40
2019-03-11T11:50:22.000Z,1.10
2019-03-11T11:52:50.700Z,1.23
2019-03-11T11:55:20.381Z,1.87
2019-03-11T11:57:48.947Z,1.63
2019-03-11T12:00:29.279Z,2.60
2019-03-11T12:02:58.066Z,1.23
2019-03-11T12:05:26.585Z,1.93
2019-03-11T12:07:55.044Z,1.33
2019-03-11T12:10:31.637Z,1.40
2019-03-11T12:13:00.171Z,1.50
2019-03-11T12:15:28.632Z,1.23
2019-03-11T12:17:57.199Z,1.40
2019-03-11T12:20:30.602Z,2.43
2019-03-11T12:22:59.122Z,1.67
2019-03-11T12:25:27.799Z,1.50
2019-03-11T12:27:58.145Z,1.83
2019-03-11T12:30:34.082Z,1.93
2019-03-11T12:33:04.766Z,2.60
2019-03-11T12:35:33.233Z,1.63
2019-03-11T12:38:01.744Z,2.23
2019-03-11T12:40:30.326Z,2.10
2019-03-11T12:42:58.790Z,1.90
2019-03-11T12:45:27.554Z,2.17
2019-03-11T12:47:56.194Z,2.10
2019-03-11T12:50:27.255Z,2.60
2019-03-11T12:52:56.373Z,1.90
2019-03-11T12:55:24.858Z,2.23
2019-03-11T12:57:53.375Z,2.27
2019-03-11T13:00:22.907Z,2.83
2019-03-11T13:02:51.429Z,3.00
2019-03-11T13:05:20.049Z,8.93
2019-03-11T13:07:48.554Z,2.20
2019-03-11T13:10:30.921Z,2.77
2019-03-11T13:12:59.418Z,1.77
2019-03-11T13:15:27.947Z,3.40
2019-03-11T13:17:56.406Z,2.13
2019-03-11T13:20:38.736Z,2.23
2019-03-11T13:23:07.219Z,2.30
2019-03-11T13:25:36.003Z,2.30
2019-03-11T13:28:04.567Z,2.50
2019-03-11T13:30:33.023Z,2.70
2019-03-11T13:33:01.495Z,3.20
2019-03-11T13:35:30.313Z,2.10
2019-03-11T13:37:58.787Z,1.70
2019-03-11T13:40:27.226Z,1.97
2019-03-11T13:42:55.709Z,2.20
2019-03-11T13:45:24.165Z,2.10
2019-03-11T13:47:52.615Z,2.10
2019-03-11T13:50:21.127Z,2.33
2019-03-11T13:52:49.652Z,2.80
2019-03-11T13:55:18.482Z,2.83
2019-03-11T13:57:47.157Z,2.40
2019-03-11T14:00:18.385Z,3.70
2019-03-11T14:02:46.835Z,2.77
2019-03-11T14:05:15.352Z,3.33
2019-03-11T14:07:43.879Z,3.43
2019-03-11T14:10:15.939Z,3.33
2019-03-11T14:12:44.755Z,2.93
2019-03-11T14:15:22.693Z,3.83
2019-03-11T14:17:51.261Z,2.80
2019-03-11T14:20:19.730Z,5.83
2019-03-11T14:22:48.180Z,9.90
2019-03-11T14:25:16.662Z,3.33
2019-03-11T14:27:45.121Z,2.63
2019-03-11T14:30:23.554Z,3.83
2019-03-11T14:32:52.015Z,3.70
2019-03-11T14:35:20.493Z,2.00
2019-03-11T14:37:49.358Z,10.17
2019-03-11T14:40:19.153Z,3.70
2019-03-11T14:42:47.597Z,5.23
2019-03-11T14:45:20.893Z,4.17
2019-03-11T14:47:49.352Z,6.23
2019-03-11T14:50:18.156Z,5.80
2019-03-11T14:52:46.724Z,4.30
2019-03-11T14:55:15.720Z,4.63
2019-03-11T14:57:45.903Z,5.40
2019-03-11T15:00:20.491Z,4.67
2019-03-11T15:02:49.018Z,4.13
2019-03-11T15:05:18.485Z,2.40
2019-03-11T15:07:47.322Z,7.10
2019-03-11T15:10:17.506Z,5.17
2019-03-11T15:12:45.995Z,5.83
2019-03-11T15:15:16.697Z,7.03
2019-03-11T15:17:45.152Z,3.63
2019-03-11T15:20:13.853Z,4.67
2019-03-11T15:22:42.342Z,3.30
2019-03-11T15:25:12.738Z,5.87
2019-03-11T15:27:41.374Z,4.50
2019-03-11T15:30:20.999Z,5.63
2019-03-11T15:32:49.512Z,3.50
2019-03-11T15:35:17.972Z,3.47
2019-03-11T15:37:46.542Z,3.30
2019-03-11T15:40:16.887Z,10.60
2019-03-11T15:42:45.443Z,4.50
2019-03-11T15:45:16.098Z,4.07
2019-03-11T15:47:44.557Z,5.17
2019-03-11T15:50:18.812Z,3.90
2019-03-11T15:52:47.387Z,1.77
2019-03-11T15:55:16.906Z,3.20
2019-03-11T15:57:46.037Z,4.50
2019-03-11T16:00:21.714Z,2.80
2019-03-11T16:02:50.227Z,3.13
2019-03-11T16:05:20.445Z,2.53
2019-03-11T16:07:49.441Z,2.30
2019-03-11T16:10:18.236Z,3.37
2019-03-11T16:12:46.876Z,10.80
2019-03-11T16:15:17.327Z,3.57
2019-03-11T16:17:45.877Z,2.70
2019-03-11T16:20:25.100Z,5.00
2019-03-11T16:22:53.568Z,10.33
2019-03-11T16:25:22.044Z,8.13
2019-03-11T16:27:50.537Z,4.67
2019-03-11T16:30:26.786Z,5.07
2019-03-11T16:33:00.850Z,2.90
2019-03-11T16:35:27.246Z,4.83
2019-03-11T16:37:55.778Z,2.93
2019-03-11T16:40:24.328Z,7.63
2019-03-11T16:42:52.784Z,2.13
2019-03-11T16:45:21.609Z,4.60
2019-03-11T16:47:50.181Z,9.63
2019-03-11T16:50:26.586Z,3.60
2019-03-11T16:52:55.150Z,3.73
2019-03-11T16:55:28.823Z,3.20
2019-03-11T16:57:57.287Z,4.20
2019-03-11T17:00:30.569Z,5.47
2019-03-11T17:02:59.037Z,9.87
2019-03-11T17:05:27.498Z,7.50
2019-03-11T17:07:55.984Z,5.30
2019-03-11T17:10:25.178Z,3.77
2019-03-11T17:12:53.643Z,6.50
2019-03-11T17:15:22.222Z,6.33
2019-03-11T17:17:50.676Z,5.30
2019-03-11T17:20:19.774Z,3.20
2019-03-11T17:22:48.335Z,3.53
2019-03-11T17:25:16.806Z,3.30
2019-03-11T17:27:45.274Z,7.30
2019-03-11T17:30:18.853Z,10.67
2019-03-11T17:32:47.310Z,3.40
2019-03-11T17:35:16.557Z,8.40
2019-03-11T17:37:45.405Z,15.30
2019-03-11T17:40:16.999Z,7.07
2019-03-11T17:42:47.815Z,10.63
2019-03-11T17:45:16.543Z,13.20
2019-03-11T17:47:45.170Z,7.47
2019-03-11T17:50:15.672Z,10.87
2019-03-11T17:52:44.258Z,8.63
2019-03-11T17:55:12.856Z,6.13
2019-03-11T17:57:41.395Z,8.40
2019-03-11T18:00:54.650Z,12.57
2019-03-11T18:03:13.544Z,13.53
2019-03-11T18:05:41.997Z,10.83
2019-03-11T18:08:10.584Z,17.73
2019-03-11T18:10:39.198Z,5.73
2019-03-11T18:13:07.669Z,10.17
2019-03-11T18:15:36.149Z,7.67
2019-03-11T18:18:04.660Z,3.57
2019-03-11T18:20:33.120Z,3.27
2019-03-11T18:23:01.609Z,4.03
2019-03-11T18:25:30.176Z,19.00
2019-03-11T18:27:58.648Z,16.90
2019-03-11T18:30:28.641Z,20.30
2019-03-11T18:32:57.139Z,9.63
2019-03-11T18:35:25.671Z,6.10
2019-03-11T18:38:03.392Z,7.57
2019-03-11T18:40:24.488Z,12.00
2019-03-11T18:42:52.941Z,11.47
2019-03-11T18:45:21.766Z,17.50
2019-03-11T18:47:50.236Z,4.40
2019-03-11T18:50:24.254Z,8.27
2019-03-11T18:52:54.266Z,7.40
2019-03-11T18:55:22.686Z,5.70
2019-03-11T18:57:51.158Z,5.93
2019-03-11T19:00:20.978Z,12.03
2019-03-11T19:02:49.490Z,8.53
2019-03-11T19:05:23.102Z,9.67
2019-03-11T19:07:51.649Z,9.17
2019-03-11T19:10:20.189Z,9.37
2019-03-11T19:12:48.796Z,13.30
2019-03-11T19:15:23.157Z,11.57
2019-03-11T19:17:51.624Z,6.70
2019-03-11T19:20:21.454Z,5.67
2019-03-11T19:22:50.231Z,5.40
2019-03-11T19:25:18.705Z,4.83
2019-03-11T19:27:47.312Z,13.63
2019-03-11T19:30:18.465Z,4.17
2019-03-11T19:32:46.935Z,8.17
2019-03-11T19:35:16.145Z,4.60
2019-03-11T19:37:44.617Z,9.10
2019-03-11T19:40:16.580Z,5.53
2019-03-11T19:42:45.089Z,6.30
2019-03-11T19:45:15.206Z,7.23
2019-03-11T19:47:44.351Z,3.97
2019-03-11T19:50:16.675Z,6.87
2019-03-11T19:52:57.229Z,11.23
2019-03-11T19:55:15.712Z,8.03
2019-03-11T19:57:44.203Z,14.17
2019-03-11T20:00:21.503Z,5.77
2019-03-11T20:02:51.468Z,16.23
2019-03-11T20:05:26.181Z,18.83
2019-03-11T20:07:54.699Z,22.90
2019-03-11T20:10:23.246Z,24.90
2019-03-11T20:12:51.799Z,24.13
2019-03-11T20:15:20.350Z,29.23
2019-03-11T20:17:48.926Z,25.50
2019-03-11T20:20:18.532Z,15.30
2019-03-11T20:22:48.053Z,17.10
2019-03-11T20:25:19.542Z,7.30
2019-03-11T20:27:48.151Z,8.50
2019-03-11T20:30:19.111Z,8.57
2019-03-11T20:32:49.236Z,9.03
2019-03-11T20:35:18.058Z,6.07
2019-03-11T20:37:48.127Z,15.90
2019-03-11T20:40:16.599Z,17.60
2019-03-11T20:42:45.113Z,6.53
2019-03-11T20:45:21.368Z,6.23
2019-03-11T20:47:50.127Z,5.03
2019-03-11T20:50:19.081Z,7.50
2019-03-11T20:52:47.532Z,11.27
2019-03-11T20:55:18.071Z,10.97
2019-03-11T20:57:46.552Z,4.40
2019-03-11T21:00:22.086Z,11.97
2019-03-11T21:02:50.906Z,9.10
2019-03-11T21:05:35.700Z,14.63
2019-03-11T21:08:04.681Z,12.73
2019-03-11T21:10:33.699Z,7.37
2019-03-11T21:13:02.123Z,9.23
2019-03-11T21:15:30.658Z,4.97
2019-03-11T21:17:59.146Z,5.00
2019-03-11T21:20:27.586Z,4.10
2019-03-11T21:22:56.148Z,5.50
2019-03-11T21:25:24.615Z,6.47
2019-03-11T21:27:53.136Z,6.07
2019-03-11T21:30:22.839Z,6.70
2019-03-11T21:32:52.010Z,6.87
2019-03-11T21:35:20.567Z,7.20
2019-03-11T21:37:49.138Z,8.70
2019-03-11T21:40:21.705Z,13.27
2019-03-11T21:42:50.315Z,13.90
2019-03-11T21:45:19.124Z,14.00
2019-03-11T21:47:50.627Z,10.53
2019-03-11T21:50:22.621Z,7.00
2019-03-11T21:52:51.090Z,4.20
2019-03-11T21:55:19.520Z,5.83
2019-03-11T21:57:48.095Z,12.57
2019-03-11T22:00:28.429Z,14.47
2019-03-11T22:02:49.608Z,6.67
2019-03-11T22:05:18.172Z,6.70
2019-03-11T22:07:46.625Z,11.07
2019-03-11T22:10:16.930Z,9.17
2019-03-11T22:12:45.570Z,8.53
2019-03-11T22:15:19.242Z,13.30
2019-03-11T22:17:47.670Z,14.70
2019-03-11T22:20:17.099Z,5.23
2019-03-11T22:22:45.618Z,4.83
2019-03-11T22:25:18.827Z,18.53
2019-03-11T22:27:47.299Z,8.40
2019-03-11T22:30:22.988Z,5.53
2019-03-11T22:32:51.484Z,5.20
2019-03-11T22:35:19.969Z,11.30
2019-03-11T22:37:48.586Z,8.50
2019-03-11T22:40:18.105Z,10.83
2019-03-11T22:42:46.618Z,10.60
2019-03-11T22:45:21.350Z,7.10
2019-03-11T22:47:52.860Z,9.83
2019-03-11T22:50:21.636Z,7.23
2019-03-11T22:52:50.179Z,18.20
2019-03-11T22:55:20.115Z,6.20
2019-03-11T22:57:48.942Z,10.53
2019-03-11T23:00:42.460Z,9.20
2019-03-11T23:03:11.180Z,6.83
2019-03-11T23:05:56.488Z,9.70
2019-03-11T23:08:09.934Z,8.90
2019-03-11T23:10:38.386Z,5.70
2019-03-11T23:13:06.847Z,14.47
2019-03-11T23:15:35.358Z,8.23
2019-03-11T23:18:03.806Z,6.93
2019-03-11T23:20:32.271Z,8.13
2019-03-11T23:23:00.789Z,9.90
2019-03-11T23:25:29.245Z,11.53
2019-03-11T23:27:57.723Z,12.30
2019-03-11T23:30:26.293Z,8.95
2019-03-11T23:32:54.747Z,7.77
2019-03-11T23:35:23.276Z,23.00
2019-03-11T23:37:51.760Z,10.50
2019-03-11T23:40:20.219Z,15.90
2019-03-11T23:42:48.759Z,13.15
2019-03-11T23:45:17.332Z,9.33
2019-03-11T23:47:45.877Z,28.30
2019-03-11T23:50:14.883Z,7.30
2019-03-11T23:52:43.795Z,13.70
2019-03-11T23:55:12.695Z,8.38
2019-03-11T23:57:41.231Z,8.15
